Time;durP1;ratioP1;P1;durP2;ratioP2;P2;SDS_P1;SDS_P2;PMS_P1;PMS_P2;Temp;Humidity;BMP_temperature;BMP_pressure;BME280_temperature;BME280_humidity;BME280_pressure;Samples;Min_cycle;Max_cycle;Signal;HPM_P1;HPM_P2
2023/02/03 00:03:15;;;;;;;3.13;2.93;;;8.50;99.90;;;;;;10601036;27;20409;-82
2023/02/03 00:08:18;;;;;;;2.70;2.60;;;8.30;99.90;;;;;;10628583;27;20625;-82
2023/02/03 00:13:22;;;;;;;2.90;2.80;;;8.30;99.90;;;;;;10630078;27;20197;-82
2023/02/03 00:18:24;;;;;;;3.30;3.10;;;8.20;99.90;;;;;;10621020;27;20210;-82
2023/02/03 00:23:28;;;;;;;3.30;3.10;;;8.20;99.90;;;;;;10626773;27;20229;-83
2023/02/03 00:28:32;;;;;;;3.57;3.37;;;8.20;99.90;;;;;;10627518;27;20325;-82
2023/02/03 00:33:34;;;;;;;2.53;2.43;;;8.10;99.90;;;;;;10628409;27;20199;-82
2023/02/03 00:38:37;;;;;;;2.83;2.33;;;8.10;99.90;;;;;;10621090;27;20706;-82
2023/02/03 00:43:40;;;;;;;2.38;2.28;;;8.20;99.90;;;;;;10627555;27;20243;-82
2023/02/03 00:48:43;;;;;;;2.50;2.40;;;8.40;99.90;;;;;;10594036;27;20198;-82
2023/02/03 00:53:45;;;;;;;2.40;2.13;;;8.40;99.90;;;;;;10574460;27;20219;-81
2023/02/03 00:58:48;;;;;;;2.00;2.00;;;8.30;99.90;;;;;;10574823;27;20556;-81
2023/02/03 01:03:50;;;;;;;2.20;2.10;;;8.30;99.90;;;;;;10610706;27;20215;-82
2023/02/03 01:08:53;;;;;;;2.20;2.10;;;8.30;99.90;;;;;;10615291;27;20570;-82
2023/02/03 01:13:58;;;;;;;2.15;2.05;;;8.30;99.90;;;;;;10590812;27;20222;-82
2023/02/03 01:19:00;;;;;;;2.10;2.00;;;8.40;99.90;;;;;;10589068;27;20193;-82
2023/02/03 01:24:03;;;;;;;2.23;2.13;;;8.40;99.90;;;;;;10589386;27;20227;-82
2023/02/03 01:29:08;;;;;;;2.70;2.50;;;8.30;99.90;;;;;;10590477;27;20195;-82
2023/02/03 01:34:13;;;;;;;2.50;2.40;;;8.30;99.90;;;;;;10603478;27;20215;-83
2023/02/03 01:39:15;;;;;;;2.40;2.20;;;8.30;99.90;;;;;;10568743;27;20195;-81
2023/02/03 01:44:40;;;;;;;2.35;2.25;;;8.20;99.90;;;;;;10611508;22;20693;-85
2023/02/03 01:49:47;;;;;;;2.47;2.30;;;8.30;99.90;;;;;;10566346;27;20198;-81
2023/02/03 01:54:52;;;;;;;2.70;2.60;;;8.30;99.90;;;;;;10579571;27;20246;-82
2023/02/03 02:00:00;;;;;;;2.50;2.40;;;8.20;99.90;;;;;;10564156;28;20207;-83
2023/02/03 02:05:07;;;;;;;3.03;2.70;;;8.20;99.90;;;;;;10566528;27;20203;-82
2023/02/03 02:10:17;;;;;;;2.80;2.60;;;8.20;99.90;;;;;;10596296;27;20198;-81
2023/02/03 02:15:27;;;;;;;2.70;2.60;;;8.20;99.90;;;;;;10621146;27;20619;-82
2023/02/03 02:21:06;;;;;;;2.73;2.53;;;8.20;99.90;;;;;;10584269;27;20199;-81
2023/02/03 02:26:43;;;;;;;2.80;2.60;;;8.20;99.90;;;;;;10592447;27;20233;-84
2023/02/03 02:32:00;;;;;;;3.50;3.20;;;8.10;99.90;;;;;;10563001;27;20199;-85
2023/02/03 02:37:07;;;;;;;3.60;3.30;;;8.10;99.90;;;;;;10569877;27;20214;-82
2023/02/03 02:42:16;;;;;;;2.90;2.70;;;8.00;99.90;;;;;;10574860;27;20200;-82
2023/02/03 02:47:22;;;;;;;6.03;3.30;;;8.10;99.90;;;;;;10638059;27;20896;-82
2023/02/03 02:52:27;;;;;;;3.37;3.07;;;8.10;99.90;;;;;;10640520;27;20212;-82
2023/02/03 02:57:31;;;;;;;3.60;3.30;;;7.90;99.90;;;;;;10642370;27;20689;-82
2023/02/03 03:02:37;;;;;;;3.00;2.80;;;7.90;99.90;;;;;;10627364;27;20228;-82
2023/02/03 03:07:44;;;;;;;2.57;2.37;;;7.90;99.90;;;;;;10645023;27;20210;-82
2023/02/03 03:12:53;;;;;;;3.20;3.00;;;7.90;99.90;;;;;;10640299;27;20186;-82
2023/02/03 03:18:03;;;;;;;2.90;2.70;;;8.00;99.90;;;;;;10624808;27;20381;-82
2023/02/03 03:23:09;;;;;;;2.60;2.50;;;8.00;99.90;;;;;;10643023;27;20213;-81
2023/02/03 03:28:16;;;;;;;3.73;2.60;;;8.00;99.90;;;;;;10646722;27;20217;-81
2023/02/03 03:33:21;;;;;;;2.70;2.50;;;8.00;99.90;;;;;;10672662;27;20212;-79
2023/02/03 03:38:31;;;;;;;2.20;2.10;;;8.00;99.90;;;;;;10651999;27;20723;-83
2023/02/03 03:43:38;;;;;;;2.33;2.23;;;8.10;99.90;;;;;;10671624;27;20186;-80
2023/02/03 03:48:48;;;;;;;2.13;2.00;;;8.10;99.90;;;;;;10634654;27;20229;-80
2023/02/03 03:53:54;;;;;;;1.73;1.70;;;8.10;99.90;;;;;;10635400;27;20189;-80
2023/02/03 03:58:59;;;;;;;2.17;2.07;;;8.10;99.90;;;;;;10670672;27;20217;-81
2023/02/03 04:04:09;;;;;;;2.67;2.57;;;8.20;99.90;;;;;;10673295;27;20174;-80
2023/02/03 04:09:11;;;;;;;2.50;2.40;;;8.20;99.90;;;;;;10660310;27;20222;-82
2023/02/03 04:14:16;;;;;;;2.27;2.17;;;8.20;99.90;;;;;;10630980;27;20678;-82
2023/02/03 04:19:20;;;;;;;2.60;2.50;;;8.20;99.90;;;;;;10632842;27;20573;-82
2023/02/03 04:24:22;;;;;;;2.60;2.50;;;8.20;99.90;;;;;;10612298;27;20317;-82
2023/02/03 04:29:24;;;;;;;3.10;3.00;;;8.20;99.90;;;;;;10626577;27;20226;-79
2023/02/03 04:34:27;;;;;;;3.70;3.60;;;8.00;99.90;;;;;;10624812;27;20732;-84
2023/02/03 04:39:29;;;;;;;3.20;3.10;;;7.90;99.90;;;;;;10626806;27;20587;-84
2023/02/03 04:44:31;;;;;;;3.27;3.03;;;7.80;99.90;;;;;;10608757;27;20275;-80
2023/02/03 04:49:35;;;;;;;4.40;4.20;;;7.70;99.90;;;;;;10629453;27;20190;-81
2023/02/03 04:54:37;;;;;;;4.97;4.77;;;7.60;99.90;;;;;;10612894;27;20761;-81
2023/02/03 04:59:39;;;;;;;4.87;4.63;;;7.50;99.90;;;;;;10619817;27;20658;-80
2023/02/03 05:04:42;;;;;;;4.87;4.57;;;7.50;99.90;;;;;;10601912;27;20218;-80
2023/02/03 05:09:45;;;;;;;4.90;4.70;;;7.50;99.90;;;;;;10629806;27;20203;-84
2023/02/03 05:14:47;;;;;;;4.77;4.10;;;7.40;99.90;;;;;;10633457;27;20241;-84
2023/02/03 05:19:50;;;;;;;4.43;4.30;;;7.40;99.90;;;;;;10636365;27;20251;-84
2023/02/03 05:24:52;;;;;;;4.47;4.03;;;7.40;99.90;;;;;;10606260;27;20264;-83
2023/02/03 05:29:54;;;;;;;5.00;4.80;;;7.40;99.90;;;;;;10645088;27;20570;-82
2023/02/03 05:34:57;;;;;;;4.70;4.50;;;7.40;99.90;;;;;;10645945;27;20215;-83
2023/02/03 05:45:16;;;;;;;4.93;4.63;;;7.40;99.90;;;;;;10623596;27;20253;-83
2023/02/03 05:50:21;;;;;;;4.80;4.60;;;7.40;99.90;;;;;;10611987;27;20206;-83
2023/02/03 05:55:26;;;;;;;5.37;5.03;;;7.40;99.90;;;;;;10587877;27;20271;-84
2023/02/03 06:00:29;;;;;;;4.20;4.00;;;7.40;99.90;;;;;;10621124;28;20202;-77
2023/02/03 06:05:34;;;;;;;4.50;4.40;;;7.40;99.90;;;;;;10606291;28;20218;-79
2023/02/03 06:10:36;;;;;;;4.30;4.10;;;7.60;99.90;;;;;;10623257;28;20198;-79
2023/02/03 06:15:39;;;;;;;4.43;4.13;;;7.60;99.90;;;;;;10623944;28;20249;-79
2023/02/03 06:20:42;;;;;;;4.00;3.80;;;7.80;99.90;;;;;;10624507;28;20203;-79
2023/02/03 06:25:44;;;;;;;3.53;3.33;;;7.80;99.90;;;;;;10605726;28;20215;-79
2023/02/03 06:30:49;;;;;;;4.00;3.83;;;7.70;99.90;;;;;;10626262;28;20205;-78
2023/02/03 06:35:54;;;;;;;3.27;3.17;;;7.70;99.90;;;;;;10626287;28;20217;-79
2023/02/03 06:40:56;;;;;;;3.80;3.50;;;7.80;99.90;;;;;;10623060;28;20226;-79
2023/02/03 06:45:58;;;;;;;3.63;3.42;;;7.90;99.90;;;;;;10626186;28;20311;-78
2023/02/03 06:51:01;;;;;;;3.70;3.53;;;8.10;99.90;;;;;;10632161;27;20199;-78
2023/02/03 06:56:03;;;;;;;3.50;3.30;;;8.10;99.90;;;;;;10639817;27;20274;-78
2023/02/03 07:01:05;;;;;;;3.03;2.90;;;7.90;99.90;;;;;;10637174;27;20633;-80
2023/02/03 07:06:09;;;;;;;3.13;2.97;;;7.80;99.90;;;;;;10628698;27;20210;-80
2023/02/03 07:11:11;;;;;;;6.77;4.70;;;7.80;99.90;;;;;;10630910;27;20745;-80
2023/02/03 07:16:14;;;;;;;4.03;3.83;;;7.60;99.90;;;;;;10612867;27;20298;-81
2023/02/03 07:21:18;;;;;;;4.67;4.33;;;7.60;99.90;;;;;;10622781;27;20286;-80
2023/02/03 07:26:21;;;;;;;3.73;2.93;;;7.60;99.90;;;;;;10598467;27;20221;-78
2023/02/03 07:31:23;;;;;;;4.00;3.70;;;7.50;99.90;;;;;;10619474;27;20205;-79
2023/02/03 07:36:27;;;;;;;3.00;2.80;;;7.50;99.90;;;;;;10630835;27;20267;-79
2023/02/03 07:41:29;;;;;;;4.60;4.40;;;7.40;99.90;;;;;;10624352;27;20202;-79
2023/02/03 07:46:32;;;;;;;3.57;3.27;;;7.40;99.90;;;;;;10622798;22;20658;-80
2023/02/03 07:51:35;;;;;;;4.60;4.30;;;7.30;99.90;;;;;;10554520;28;20675;-79
2023/02/03 07:56:37;;;;;;;3.73;3.50;;;7.30;99.90;;;;;;10581214;27;20213;-79
2023/02/03 08:01:39;;;;;;;5.35;5.00;;;7.40;99.90;;;;;;10611558;27;20188;-77
2023/02/03 08:06:43;;;;;;;3.90;3.70;;;7.50;99.90;;;;;;10580981;27;20271;-78
2023/02/03 08:11:48;;;;;;;5.33;4.83;;;7.60;99.90;;;;;;10604269;27;20192;-79
2023/02/03 08:16:50;;;;;;;4.90;4.60;;;7.50;99.90;;;;;;10581852;27;20210;-78
2023/02/03 08:21:54;;;;;;;4.77;4.47;;;7.50;99.90;;;;;;10607612;27;20191;-80
2023/02/03 08:26:56;;;;;;;6.50;4.90;;;7.60;99.90;;;;;;10621007;27;20223;-78
2023/02/03 08:31:58;;;;;;;4.97;4.67;;;7.60;99.90;;;;;;10600140;27;20275;-78
2023/02/03 08:37:02;;;;;;;4.13;3.73;;;7.60;99.90;;;;;;10623968;27;20253;-80
2023/02/03 08:42:05;;;;;;;6.83;5.77;;;7.50;99.90;;;;;;10616262;27;20210;-80
2023/02/03 08:47:07;;;;;;;6.37;5.87;;;7.60;99.90;;;;;;10588677;28;20245;-81
2023/02/03 08:52:13;;;;;;;5.80;5.40;;;7.60;99.90;;;;;;10580027;27;20211;-79
2023/02/03 08:57:15;;;;;;;6.47;6.07;;;7.70;99.90;;;;;;10626341;27;20237;-79
2023/02/03 09:02:19;;;;;;;3.47;3.27;;;7.70;99.90;;;;;;10609818;27;20255;-79
2023/02/03 09:07:23;;;;;;;6.27;4.63;;;7.90;99.90;;;;;;10604218;27;20230;-78
2023/02/03 09:12:25;;;;;;;4.32;4.05;;;7.80;99.90;;;;;;10578736;27;20187;-79
2023/02/03 09:17:27;;;;;;;5.57;5.23;;;8.00;99.90;;;;;;10605519;27;20256;-80
2023/02/03 09:22:31;;;;;;;4.87;4.67;;;8.10;99.90;;;;;;10570332;28;20194;-77
2023/02/03 09:27:33;;;;;;;5.10;4.70;;;8.20;99.90;;;;;;10591779;27;20226;-80
2023/02/03 09:32:35;;;;;;;5.57;5.27;;;8.10;99.90;;;;;;10621346;27;20256;-79
2023/02/03 09:37:38;;;;;;;4.50;4.30;;;8.10;99.90;;;;;;10593332;27;20214;-78
2023/02/03 09:43:02;;;;;;;4.20;4.00;;;8.20;99.90;;;;;;10603881;27;20197;-79
2023/02/03 09:48:09;;;;;;;5.50;5.20;;;8.30;99.90;;;;;;10621357;27;20276;-79
2023/02/03 09:53:25;;;;;;;4.70;4.50;;;8.30;99.90;;;;;;10543654;28;20211;-79
2023/02/03 09:58:32;;;;;;;3.70;3.50;;;8.40;99.90;;;;;;10576763;28;20245;-79
2023/02/03 10:03:41;;;;;;;3.33;3.13;;;8.40;99.90;;;;;;10605616;28;20198;-78
2023/02/03 10:09:02;;;;;;;3.50;3.30;;;8.50;99.90;;;;;;10614474;28;20219;-77
2023/02/03 10:14:21;;;;;;;4.40;4.20;;;8.60;99.90;;;;;;10592744;28;20206;-78
2023/02/03 10:19:34;;;;;;;4.37;4.07;;;8.60;99.90;;;;;;10562253;28;20197;-78
2023/02/03 10:24:42;;;;;;;4.17;4.00;;;8.70;99.90;;;;;;10575426;27;20232;-79
2023/02/03 10:29:44;;;;;;;4.63;4.27;;;8.70;99.90;;;;;;10627053;27;20209;-79
2023/02/03 10:34:48;;;;;;;4.30;3.90;;;9.00;99.90;;;;;;10581645;27;20280;-79
2023/02/03 10:39:53;;;;;;;6.53;6.00;;;9.20;99.90;;;;;;10578757;27;20191;-80
2023/02/03 10:44:58;;;;;;;3.63;3.43;;;9.30;99.90;;;;;;10614059;27;20222;-80
2023/02/03 10:50:03;;;;;;;3.80;3.60;;;9.30;99.90;;;;;;10631899;27;20218;-78
2023/02/03 10:55:28;;;;;;;3.90;3.50;;;9.40;99.90;;;;;;10619807;27;20262;-80
2023/02/03 11:00:33;;;;;;;3.57;3.27;;;9.50;99.90;;;;;;10606084;27;20199;-79
2023/02/03 11:05:35;;;;;;;2.57;2.37;;;9.60;99.90;;;;;;10596364;27;20257;-80
2023/02/03 11:10:39;;;;;;;2.67;2.57;;;9.50;99.90;;;;;;10627816;27;20223;-80
2023/02/03 11:15:53;;;;;;;2.83;2.73;;;9.60;99.90;;;;;;10622377;27;20248;-80
2023/02/03 11:20:55;;;;;;;3.00;2.90;;;9.60;99.90;;;;;;10578357;27;20282;-79
2023/02/03 11:25:58;;;;;;;2.80;2.70;;;9.70;99.90;;;;;;10564681;27;20253;-79
2023/02/03 11:31:00;;;;;;;2.70;2.60;;;9.70;99.90;;;;;;10566977;27;20694;-80
2023/02/03 11:36:04;;;;;;;2.80;2.70;;;9.60;99.90;;;;;;10584263;27;20218;-79
2023/02/03 11:41:18;;;;;;;4.30;2.90;;;9.80;99.90;;;;;;10568564;27;20439;-80
2023/02/03 11:46:20;;;;;;;2.20;2.00;;;9.90;99.90;;;;;;10572149;27;20222;-81
2023/02/03 11:51:31;;;;;;;2.83;2.70;;;9.90;99.90;;;;;;10588456;27;20185;-81
2023/02/03 11:56:52;;;;;;;2.67;2.53;;;9.80;99.90;;;;;;10582273;27;20208;-81
2023/02/03 12:02:28;;;;;;;2.80;2.40;;;9.70;99.90;;;;;;10568631;27;20200;-78
2023/02/03 12:07:48;;;;;;;2.40;2.30;;;9.70;99.90;;;;;;10551653;27;20215;-79
2023/02/03 12:13:01;;;;;;;2.30;2.20;;;9.90;99.90;;;;;;10567991;27;20200;-79
2023/02/03 12:18:13;;;;;;;1.93;1.83;;;10.00;99.90;;;;;;10564479;27;20212;-77
2023/02/03 12:23:28;;;;;;;1.70;1.60;;;9.90;99.90;;;;;;10549295;27;20188;-78
2023/02/03 12:28:43;;;;;;;2.70;2.60;;;9.80;99.90;;;;;;10562814;27;20219;-79
2023/02/03 12:33:52;;;;;;;2.47;2.37;;;9.80;99.90;;;;;;10570722;27;20671;-79
2023/02/03 12:38:59;;;;;;;2.38;2.15;;;9.80;99.90;;;;;;10567581;27;20215;-78
2023/02/03 12:44:08;;;;;;;2.40;2.30;;;10.00;99.90;;;;;;10539212;27;20219;-79
2023/02/03 12:49:16;;;;;;;3.13;2.17;;;10.00;99.90;;;;;;10546127;27;20706;-78
2023/02/03 12:54:33;;;;;;;2.40;2.30;;;9.90;99.90;;;;;;10572593;27;20212;-78
2023/02/03 12:59:37;;;;;;;3.57;3.37;;;9.90;99.90;;;;;;10582550;27;20666;-78
2023/02/03 13:04:46;;;;;;;2.27;2.17;;;9.90;99.90;;;;;;10558965;28;20231;-78
2023/02/03 13:09:54;;;;;;;2.17;1.98;;;9.90;99.90;;;;;;10546386;28;20715;-79
2023/02/03 13:15:22;;;;;;;2.20;2.10;;;10.00;99.90;;;;;;10552988;28;20246;-78
2023/02/03 13:20:29;;;;;;;2.10;2.00;;;10.00;99.90;;;;;;10572895;27;20187;-79
2023/02/03 13:25:43;;;;;;;11.87;9.07;;;10.00;99.90;;;;;;10544879;28;20224;-78
2023/02/03 13:31:07;;;;;;;2.33;2.23;;;9.90;99.90;;;;;;10573011;27;20220;-79
2023/02/03 13:36:25;;;;;;;2.30;2.20;;;9.80;99.90;;;;;;10540717;27;20261;-80
2023/02/03 13:41:36;;;;;;;2.90;2.67;;;9.80;99.90;;;;;;10540476;28;20210;-78
2023/02/03 13:47:01;;;;;;;2.07;1.97;;;9.80;99.90;;;;;;10588718;27;20223;-79
2023/02/03 13:52:04;;;;;;;2.27;2.17;;;9.80;99.90;;;;;;10634086;27;20198;-79
2023/02/03 13:57:19;;;;;;;1.80;1.70;;;9.70;99.90;;;;;;10607007;27;20256;-80
2023/02/03 14:02:56;;;;;;;2.30;2.20;;;9.80;99.90;;;;;;10624146;27;20213;-80
2023/02/03 14:07:58;;;;;;;2.17;2.08;;;9.80;99.90;;;;;;10612545;28;20253;-82
2023/02/03 14:13:02;;;;;;;2.43;2.00;;;9.90;99.90;;;;;;10638775;28;20199;-80
2023/02/03 14:18:33;;;;;;;2.40;2.20;;;10.00;99.90;;;;;;10626522;28;20222;-79
2023/02/03 14:23:43;;;;;;;2.33;1.90;;;9.90;99.90;;;;;;10601537;28;20203;-79
2023/02/03 14:28:47;;;;;;;1.53;1.43;;;9.90;99.90;;;;;;10616309;28;20305;-79
2023/02/03 14:34:13;;;;;;;1.90;1.80;;;9.80;99.90;;;;;;10606298;28;20203;-80
2023/02/03 14:39:54;;;;;;;2.03;1.93;;;9.80;99.90;;;;;;10608386;28;20217;-77
2023/02/03 14:45:09;;;;;;;1.63;1.53;;;9.80;99.90;;;;;;10594876;28;20342;-78
2023/02/03 14:50:35;;;;;;;2.30;2.20;;;9.80;99.90;;;;;;10546282;28;20777;-78
2023/02/03 14:55:48;;;;;;;1.97;1.87;;;9.80;99.90;;;;;;10616115;28;20730;-80
2023/02/03 15:00:52;;;;;;;1.90;1.80;;;9.70;99.90;;;;;;10596259;28;20192;-81
2023/02/03 15:05:58;;;;;;;1.97;1.83;;;9.80;99.90;;;;;;10632434;28;20222;-79
2023/02/03 15:11:25;;;;;;;2.10;2.00;;;9.70;99.90;;;;;;10593917;28;20219;-79
2023/02/03 15:16:27;;;;;;;2.47;2.27;;;9.70;99.90;;;;;;10618443;27;20210;-80
2023/02/03 15:21:31;;;;;;;2.20;2.10;;;9.70;99.90;;;;;;10601114;27;20191;-79
2023/02/03 15:26:33;;;;;;;2.03;1.90;;;9.60;99.90;;;;;;10580954;28;20230;-79
2023/02/03 15:31:39;;;;;;;1.93;1.83;;;9.60;99.90;;;;;;10592928;27;20270;-78
2023/02/03 15:36:47;;;;;;;1.87;1.77;;;9.50;99.90;;;;;;10553943;28;20216;-78
2023/02/03 15:41:52;;;;;;;2.20;2.10;;;9.50;99.90;;;;;;10608257;27;20204;-78
2023/02/03 15:46:55;;;;;;;6.50;5.17;;;9.50;99.90;;;;;;10623360;27;20305;-79
2023/02/03 15:52:02;;;;;;;3.67;3.23;;;9.40;99.90;;;;;;10568990;27;20199;-79
2023/02/03 15:57:09;;;;;;;2.20;2.10;;;9.40;99.90;;;;;;10601013;27;20747;-79
2023/02/03 16:02:17;;;;;;;8.23;7.73;;;9.30;99.90;;;;;;10611381;27;20203;-80
2023/02/03 16:07:22;;;;;;;1.77;1.67;;;9.30;99.90;;;;;;10626463;27;20639;-79
2023/02/03 16:12:26;;;;;;;3.13;2.77;;;9.50;99.90;;;;;;10606000;27;20259;-79
2023/02/03 16:17:31;;;;;;;2.33;2.23;;;9.60;99.90;;;;;;10555308;28;20265;-79
2023/02/03 16:22:39;;;;;;;2.47;2.30;;;9.50;99.90;;;;;;10606496;27;20225;-79
2023/02/03 16:27:44;;;;;;;2.70;2.60;;;9.40;99.90;;;;;;10619994;27;20233;-80
2023/02/03 16:54:21;;;;;;;2.70;2.50;;;9.40;99.90;;;;;;10592769;27;20202;-78
2023/02/03 16:59:23;;;;;;;2.40;2.30;;;9.40;99.90;;;;;;10567462;27;20199;-80
2023/02/03 17:04:25;;;;;;;2.67;2.47;;;9.30;99.90;;;;;;10582262;27;21061;-80
2023/02/03 17:09:33;;;;;;;1.83;1.73;;;9.40;99.90;;;;;;10632623;27;20498;-80
2023/02/03 17:14:35;;;;;;;2.10;2.00;;;9.40;99.90;;;;;;10611844;27;20275;-79
2023/02/03 17:19:37;;;;;;;2.13;2.03;;;9.30;99.90;;;;;;10584772;28;20270;-79
2023/02/03 17:24:41;;;;;;;2.63;2.53;;;9.30;99.90;;;;;;10599404;27;20223;-78
2023/02/03 17:29:43;;;;;;;2.43;2.23;;;9.20;99.90;;;;;;10545806;28;20215;-79
2023/02/03 17:34:45;;;;;;;2.50;2.30;;;9.30;99.90;;;;;;10604982;27;20233;-80
2023/02/03 17:39:52;;;;;;;2.50;2.27;;;9.20;99.90;;;;;;10568833;28;20195;-80
2023/02/03 17:44:54;;;;;;;2.50;2.40;;;9.30;99.90;;;;;;10607287;27;20223;-81
2023/02/03 17:49:56;;;;;;;2.50;2.40;;;9.30;99.90;;;;;;10632587;27;20214;-79
2023/02/03 17:54:59;;;;;;;2.40;2.30;;;9.30;99.90;;;;;;10599129;27;20268;-81
2023/02/03 18:00:02;;;;;;;7.28;6.55;;;9.30;99.90;;;;;;10630152;27;20242;-81
2023/02/03 18:05:14;;;;;;;4.10;3.80;;;9.50;99.90;;;;;;10620812;27;20218;-81
2023/02/03 18:10:17;;;;;;;2.77;2.67;;;9.50;99.90;;;;;;10587025;28;20218;-80
2023/02/03 18:15:20;;;;;;;2.40;2.30;;;9.40;99.90;;;;;;10594938;28;20258;-79
2023/02/03 18:20:22;;;;;;;2.50;2.40;;;9.40;99.90;;;;;;10627322;28;20190;-80
2023/02/03 18:25:25;;;;;;;2.30;2.20;;;9.40;99.90;;;;;;10623817;28;20698;-78
2023/02/03 18:30:27;;;;;;;2.90;2.80;;;9.40;99.90;;;;;;10588968;28;20223;-81
2023/02/03 18:35:29;;;;;;;2.30;2.20;;;9.40;99.90;;;;;;10593516;28;20234;-81
2023/02/03 18:40:34;;;;;;;2.70;2.60;;;9.40;99.90;;;;;;10628252;28;20195;-81
2023/02/03 18:45:37;;;;;;;2.47;2.37;;;9.40;99.90;;;;;;10624665;27;20287;-78
2023/02/03 18:50:40;;;;;;;2.80;2.70;;;9.40;99.90;;;;;;10576821;28;20222;-78
2023/02/03 18:55:44;;;;;;;2.63;2.43;;;9.50;99.90;;;;;;10595309;27;20215;-80
2023/02/03 19:00:47;;;;;;;2.53;2.43;;;9.40;99.90;;;;;;10629816;27;20219;-79
2023/02/03 19:05:49;;;;;;;1.93;1.83;;;9.40;99.90;;;;;;10632615;27;20246;-80
2023/02/03 19:10:53;;;;;;;3.07;2.97;;;9.40;99.90;;;;;;10579222;28;20219;-81
2023/02/03 19:15:55;;;;;;;3.00;2.80;;;9.40;99.90;;;;;;10596049;27;20222;-80
2023/02/03 19:20:57;;;;;;;3.13;2.90;;;9.40;99.90;;;;;;10615951;27;20570;-79
2023/02/03 19:26:01;;;;;;;3.60;2.90;;;9.40;99.90;;;;;;10635370;27;20799;-79
2023/02/03 19:31:04;;;;;;;3.40;3.20;;;9.40;99.90;;;;;;10591877;27;20211;-81
2023/02/03 19:36:07;;;;;;;2.95;2.85;;;9.40;99.90;;;;;;10589375;28;20258;-79
2023/02/03 19:41:11;;;;;;;3.67;3.47;;;9.60;99.90;;;;;;10613018;27;20239;-78
2023/02/03 19:46:14;;;;;;;3.17;2.97;;;9.60;99.90;;;;;;10634550;27;20234;-81
2023/02/03 19:51:16;;;;;;;3.33;3.13;;;9.50;99.90;;;;;;10601506;27;20210;-81
2023/02/03 19:56:19;;;;;;;2.90;2.80;;;9.50;99.90;;;;;;10596508;27;20211;-81
2023/02/03 20:01:22;;;;;;;6.60;6.10;;;9.60;99.90;;;;;;10606643;27;20591;-78
2023/02/03 20:06:25;;;;;;;3.30;3.20;;;9.60;99.90;;;;;;10617126;27;20219;-80
2023/02/03 20:11:28;;;;;;;4.03;3.80;;;9.60;99.90;;;;;;10613128;27;20230;-81
2023/02/03 20:16:30;;;;;;;3.10;3.00;;;9.50;99.90;;;;;;10608355;27;20219;-81
2023/02/03 20:21:32;;;;;;;3.03;2.93;;;9.50;99.90;;;;;;10615297;27;20603;-81
2023/02/03 20:26:36;;;;;;;2.87;2.77;;;9.50;99.90;;;;;;10635255;27;20214;-80
2023/02/03 20:31:38;;;;;;;2.70;2.60;;;9.50;99.90;;;;;;10587492;27;20754;-80
2023/02/03 20:36:40;;;;;;;2.50;2.40;;;9.50;99.90;;;;;;10602949;27;20270;-79
2023/02/03 20:41:44;;;;;;;2.77;2.67;;;9.50;99.90;;;;;;10629939;27;20217;-81
2023/02/03 20:46:46;;;;;;;2.70;2.60;;;9.50;99.90;;;;;;10631262;27;20778;-81
2023/02/03 20:51:51;;;;;;;2.75;2.65;;;9.60;99.90;;;;;;10587223;28;20241;-81
2023/02/03 20:56:55;;;;;;;2.90;2.80;;;9.80;99.90;;;;;;10607658;27;20678;-81
2023/02/03 21:02:06;;;;;;;2.40;2.30;;;9.80;99.90;;;;;;10614725;27;20205;-81
2023/02/03 21:07:13;;;;;;;4.97;4.63;;;9.70;99.90;;;;;;10611961;27;20247;-81
2023/02/03 21:12:17;;;;;;;2.77;2.67;;;9.80;99.90;;;;;;10601008;27;20303;-81
2023/02/03 21:17:21;;;;;;;3.00;2.90;;;9.80;99.90;;;;;;10598274;27;20226;-81
2023/02/03 21:22:25;;;;;;;2.93;2.83;;;9.90;99.90;;;;;;10619150;27;20306;-81
2023/02/03 21:27:31;;;;;;;2.80;2.70;;;9.80;99.90;;;;;;10623962;27;20760;-79
2023/02/03 21:32:38;;;;;;;3.20;3.03;;;9.80;99.90;;;;;;10587185;27;20238;-80
2023/02/03 21:37:41;;;;;;;2.83;2.70;;;9.70;99.90;;;;;;10559231;28;20255;-80
2023/02/03 21:42:46;;;;;;;3.33;3.13;;;9.70;99.90;;;;;;10568958;27;20194;-80
2023/02/03 21:47:50;;;;;;;3.90;3.70;;;9.70;99.90;;;;;;10561532;27;20372;-81
2023/02/03 21:52:52;;;;;;;4.03;3.83;;;9.60;99.90;;;;;;10557855;27;20263;-78
2023/02/03 21:57:56;;;;;;;5.10;4.67;;;9.60;99.90;;;;;;10552120;27;20718;-80
2023/02/03 22:02:59;;;;;;;6.37;5.70;;;9.70;99.90;;;;;;10578357;27;20199;-81
2023/02/03 22:08:04;;;;;;;6.10;5.30;;;9.70;99.90;;;;;;10555140;27;20262;-78
2023/02/03 22:13:08;;;;;;;5.27;4.87;;;9.70;99.90;;;;;;10587824;28;20195;-77
2023/02/03 22:18:10;;;;;;;5.97;5.57;;;9.70;99.90;;;;;;10552429;28;20766;-79
2023/02/03 22:23:12;;;;;;;5.70;5.40;;;9.70;99.90;;;;;;10584330;27;20756;-78
2023/02/03 22:28:16;;;;;;;6.70;6.20;;;9.60;99.90;;;;;;10553172;27;20226;-79
2023/02/03 22:33:19;;;;;;;5.97;5.57;;;9.60;99.90;;;;;;10568814;27;20286;-79
2023/02/03 22:38:21;;;;;;;7.00;6.37;;;9.70;99.90;;;;;;10551112;28;20301;-79
2023/02/03 22:43:25;;;;;;;6.53;5.93;;;9.70;99.90;;;;;;10589138;27;20238;-79
2023/02/03 22:48:27;;;;;;;6.67;6.17;;;9.60;99.90;;;;;;10550938;27;20230;-78
2023/02/03 22:53:29;;;;;;;6.37;5.97;;;9.60;99.90;;;;;;10586661;27;20209;-79
2023/02/03 22:58:32;;;;;;;9.03;8.33;;;9.60;99.90;;;;;;10581694;27;20226;-78
2023/02/03 23:03:34;;;;;;;6.70;6.30;;;9.70;99.90;;;;;;10566381;27;20655;-78
2023/02/03 23:08:37;;;;;;;7.47;6.87;;;9.70;99.90;;;;;;10586987;27;20255;-80
2023/02/03 23:13:40;;;;;;;6.47;6.07;;;9.70;99.90;;;;;;10564033;27;20223;-77
2023/02/03 23:18:42;;;;;;;6.70;6.30;;;9.70;99.90;;;;;;10571802;27;20215;-78
2023/02/03 23:23:44;;;;;;;6.60;6.00;;;9.90;99.90;;;;;;10562280;27;20223;-79
2023/02/03 23:28:48;;;;;;;6.97;6.30;;;9.90;99.90;;;;;;10567247;27;20227;-78
2023/02/03 23:39:06;;;;;;;6.60;6.10;;;9.80;99.90;;;;;;10578682;27;20218;-78
2023/02/03 23:44:12;;;;;;;6.27;5.83;;;9.90;99.90;;;;;;10581747;27;20450;-78
2023/02/03 23:49:15;;;;;;;6.80;6.30;;;10.00;99.90;;;;;;10582503;27;20596;-77
2023/02/03 23:54:17;;;;;;;5.83;5.43;;;9.80;99.90;;;;;;10588881;27;20228;-78
2023/02/03 23:59:20;;;;;;;6.10;5.70;;;9.80;99.90;;;;;;10582401;28;20296;-78
